Terminal Aerodrome Forecast
Issued by NWS Topeka, KS

Home | Current Version | Previous Version | Text Only | Print | Product List | Glossary Off
Versions: 1 2 3 4 5 6 7 8 9 10 11 12 13 14 15

000
FTUS43 KTOP 261131
TAFTOP
TAF
KTOP 261131Z 2612/2712 18004KT P6SM BKN150
     FM261500 21006KT P6SM VCSH BKN120
     FM261900 VRB04KT P6SM VCTS SCT070CB BKN100
     FM270000 02005KT P6SM BKN150=

USA.gov is the U.S. government's official web portal to all federal, state and local government web resources and services.